createdAt,value
2022-10-19T00:00:15.751Z,100811.00
2022-10-19T00:01:22.866Z,100811.00
2022-10-19T00:02:25.982Z,100799.00
2022-10-19T00:03:28.093Z,100811.03
2022-10-19T00:04:29.924Z,100807.81
2022-10-19T00:05:31.820Z,100780.84
2022-10-19T00:06:36.481Z,100806.00
2022-10-19T00:07:39.445Z,100817.38
2022-10-19T00:08:42.373Z,100755.66
2022-10-19T00:09:44.452Z,100801.34
2022-10-19T00:10:47.877Z,100715.59
2022-10-19T00:11:52.193Z,100803.91
2022-10-19T00:12:54.263Z,100792.88
2022-10-19T00:13:57.919Z,100741.38
2022-10-19T00:14:59.643Z,100752.53
2022-10-19T00:16:04.954Z,100791.19
2022-10-19T00:17:08.839Z,100760.34
2022-10-19T00:18:11.174Z,100816.88
2022-10-19T00:19:15.891Z,100812.00
2022-10-19T00:20:17.483Z,100749.25
2022-10-19T00:21:20.185Z,100817.88
2022-10-19T00:22:22.657Z,100803.09
2022-10-19T00:23:24.370Z,100815.25
2022-10-19T00:24:26.652Z,100798.16
2022-10-19T00:25:28.653Z,100816.28
2022-10-19T00:26:30.437Z,100814.63
2022-10-19T00:27:41.705Z,100764.88
2022-10-19T00:28:50.414Z,100817.16
2022-10-19T00:29:52.484Z,100791.41
2022-10-19T00:30:54.513Z,100776.00
2022-10-19T00:31:56.106Z,100817.31
2022-10-19T00:32:59.438Z,100815.66
2022-10-19T00:34:01.291Z,100817.66
2022-10-19T00:35:05.539Z,100817.66
2022-10-19T00:36:16.497Z,100769.41
2022-10-19T00:37:19.544Z,100783.16
2022-10-19T00:38:24.531Z,100800.41
2022-10-19T00:39:26.612Z,100807.34
2022-10-19T00:40:32.969Z,100783.44
2022-10-19T00:41:39.139Z,100793.59
2022-10-19T00:42:41.506Z,100805.69
2022-10-19T00:44:03.421Z,100806.56
2022-10-19T00:45:17.443Z,100811.00
2022-10-19T00:46:24.120Z,100807.63
2022-10-19T00:47:27.496Z,100793.91
2022-10-19T00:48:32.445Z,100826.47
2022-10-19T00:49:40.194Z,100782.03
2022-10-19T00:50:46.058Z,100807.81
2022-10-19T00:51:50.889Z,100813.22
2022-10-19T00:52:54.119Z,100794.34
2022-10-19T00:53:56.961Z,100785.75
2022-10-19T00:54:59.797Z,100839.41
2022-10-19T00:56:06.235Z,100810.56
2022-10-19T00:57:09.142Z,100823.69
2022-10-19T00:58:11.340Z,100785.63
2022-10-19T00:59:19.984Z,100809.63
2022-10-19T01:00:21.630Z,100754.03
2022-10-19T01:01:27.354Z,100747.97
2022-10-19T01:02:29.351Z,100739.56
2022-10-19T01:03:31.668Z,100808.91
2022-10-19T01:04:39.695Z,100811.53
2022-10-19T01:05:44.757Z,100813.28
2022-10-19T01:06:46.767Z,100763.63
2022-10-19T01:07:49.033Z,100746.66
2022-10-19T01:08:51.272Z,100813.50
2022-10-19T01:09:54.819Z,100812.66
2022-10-19T01:11:25.818Z,100812.69
2022-10-19T01:12:47.062Z,100810.34
2022-10-19T01:14:10.925Z,100737.31
2022-10-19T01:15:44.705Z,100799.13
2022-10-19T01:17:17.509Z,100814.69
2022-10-19T01:18:53.719Z,100785.53
2022-10-19T01:20:20.055Z,100816.38
2022-10-19T01:21:56.024Z,100786.44
2022-10-19T01:23:19.549Z,100812.09
2022-10-19T01:24:59.080Z,100807.69
2022-10-19T01:26:03.808Z,100806.94
2022-10-19T01:27:14.996Z,100808.81
2022-10-19T01:28:17.678Z,100813.19
2022-10-19T01:29:31.624Z,100804.50
2022-10-19T01:30:42.169Z,100809.75
2022-10-19T01:32:03.208Z,100812.84
2022-10-19T01:33:13.978Z,100802.81
2022-10-19T01:34:34.192Z,100797.59
2022-10-19T01:36:01.681Z,100802.72
2022-10-19T01:37:29.456Z,100798.25
2022-10-19T01:38:57.226Z,100793.91
2022-10-19T01:40:16.881Z,100789.53
2022-10-19T01:41:30.018Z,100821.75
2022-10-19T01:43:18.474Z,100790.34
2022-10-19T01:44:30.860Z,100785.09
2022-10-19T01:45:54.807Z,100795.56
2022-10-19T01:47:06.581Z,100775.69
2022-10-19T01:48:22.038Z,100789.47
2022-10-19T01:49:48.437Z,100786.09
2022-10-19T01:51:05.255Z,100779.19
2022-10-19T01:52:10.824Z,100786.25
2022-10-19T01:53:14.491Z,100713.38
2022-10-19T01:54:19.181Z,100787.19
2022-10-19T01:55:24.519Z,100779.41
2022-10-19T01:56:29.197Z,100734.78
2022-10-19T01:57:34.944Z,100777.00
2022-10-19T01:58:42.542Z,100769.81
2022-10-19T01:59:47.896Z,100783.25
2022-10-19T02:00:53.526Z,100774.56
2022-10-19T02:01:56.289Z,100776.41
2022-10-19T02:03:01.820Z,100769.63
2022-10-19T02:04:04.946Z,100767.09
2022-10-19T02:05:09.058Z,100747.41
2022-10-19T02:06:13.707Z,100763.78
2022-10-19T02:07:16.560Z,100752.50
2022-10-19T02:08:25.877Z,100767.06
2022-10-19T02:09:27.780Z,100707.00
2022-10-19T02:10:32.013Z,100722.72
2022-10-19T02:11:37.244Z,100744.56
2022-10-19T02:12:40.031Z,100775.19
2022-10-19T02:13:47.817Z,100768.25
2022-10-19T02:14:54.172Z,100764.84
2022-10-19T02:16:00.914Z,100691.09
2022-10-19T02:17:08.111Z,100707.41
2022-10-19T02:18:13.306Z,100757.88
2022-10-19T02:19:17.283Z,100759.59
2022-10-19T02:20:20.781Z,100768.25
2022-10-19T02:21:22.611Z,100762.16
2022-10-19T02:22:24.527Z,100768.34
2022-10-19T02:23:28.318Z,100778.84
2022-10-19T02:24:31.987Z,100677.28
2022-10-19T02:25:34.762Z,100709.94
2022-10-19T02:26:37.849Z,100772.81
2022-10-19T02:27:44.908Z,100770.22
2022-10-19T02:28:47.558Z,100777.25
2022-10-19T02:29:52.012Z,100735.91
2022-10-19T02:30:54.210Z,100691.31
2022-10-19T02:31:57.771Z,100745.50
2022-10-19T02:33:00.254Z,100710.88
2022-10-19T02:34:02.218Z,100728.50
2022-10-19T02:35:04.161Z,100733.84
2022-10-19T02:36:06.070Z,100747.31
2022-10-19T02:37:08.171Z,100700.25
2022-10-19T02:38:14.924Z,100750.75
2022-10-19T02:39:17.031Z,100764.75
2022-10-19T02:40:22.209Z,100690.34
2022-10-19T02:41:44.487Z,100730.34
2022-10-19T02:42:56.503Z,100688.09
2022-10-19T02:44:17.022Z,100742.81
2022-10-19T02:45:22.546Z,100753.84
2022-10-19T02:46:46.206Z,100712.50
2022-10-19T02:48:05.645Z,100681.44
2022-10-19T02:49:09.781Z,100683.84
2022-10-19T02:50:11.647Z,100749.78
2022-10-19T02:51:41.087Z,100741.78
2022-10-19T02:52:43.516Z,100682.53
2022-10-19T02:53:54.810Z,100715.19
2022-10-19T02:54:56.728Z,100729.50
2022-10-19T02:56:01.058Z,100697.69
2022-10-19T02:57:24.394Z,100716.69
2022-10-19T02:58:29.098Z,100750.03
2022-10-19T02:59:31.207Z,100664.94
2022-10-19T03:00:32.932Z,100676.78
2022-10-19T03:01:35.616Z,100722.16
2022-10-19T03:02:38.644Z,100714.47
2022-10-19T03:03:41.355Z,100718.69
2022-10-19T03:05:49.562Z,100701.13
2022-10-19T03:06:51.894Z,100713.69
2022-10-19T03:07:53.563Z,100731.22
2022-10-19T03:08:55.604Z,100697.16
2022-10-19T03:09:59.516Z,100728.56
2022-10-19T03:11:03.591Z,100731.13
2022-10-19T03:12:17.263Z,100695.94
2022-10-19T03:13:18.831Z,100677.88
2022-10-19T03:14:20.804Z,100710.25
2022-10-19T03:15:27.067Z,100657.75
2022-10-19T03:16:29.921Z,100736.31
2022-10-19T03:17:32.210Z,100716.78
2022-10-19T03:18:34.921Z,100647.53
2022-10-19T03:19:37.921Z,100710.72
2022-10-19T03:21:55.323Z,100668.63
2022-10-19T03:22:59.327Z,100689.28
2022-10-19T03:24:03.425Z,100667.84
2022-10-19T03:25:08.795Z,100724.94
2022-10-19T03:26:15.402Z,100650.66
2022-10-19T03:27:18.492Z,100708.63
2022-10-19T03:28:20.326Z,100689.78
2022-10-19T03:29:23.818Z,100702.97
2022-10-19T03:30:25.761Z,100703.75
2022-10-19T03:31:28.247Z,100686.72
2022-10-19T03:32:30.260Z,100706.50
2022-10-19T03:33:33.201Z,100688.44
2022-10-19T03:34:35.056Z,100677.28
2022-10-19T03:35:39.139Z,100706.53
2022-10-19T03:36:46.674Z,100700.69
2022-10-19T03:37:50.744Z,100676.06
2022-10-19T03:38:57.377Z,100644.06
2022-10-19T03:40:03.761Z,100721.53
2022-10-19T03:41:09.252Z,100672.25
2022-10-19T03:42:11.574Z,100683.50
2022-10-19T03:43:14.303Z,100639.19
2022-10-19T03:44:16.264Z,100709.34
2022-10-19T03:45:18.976Z,100599.41
2022-10-19T03:46:24.416Z,100659.25
2022-10-19T03:47:30.134Z,100691.16
2022-10-19T03:48:33.750Z,100697.34
2022-10-19T03:49:38.105Z,100642.81
2022-10-19T03:50:43.144Z,100673.56
2022-10-19T03:51:44.933Z,100698.47
2022-10-19T03:52:49.810Z,100660.47
2022-10-19T03:53:58.068Z,100708.06
2022-10-19T03:54:59.756Z,100673.59
2022-10-19T03:56:07.174Z,100643.78
2022-10-19T03:57:09.093Z,100720.66
2022-10-19T03:58:10.795Z,100654.25
2022-10-19T03:59:14.916Z,100613.94
2022-10-19T04:00:16.983Z,100670.53
2022-10-19T04:01:25.423Z,100684.06
2022-10-19T04:02:27.050Z,100660.13
2022-10-19T04:03:28.940Z,100695.31
2022-10-19T04:04:32.298Z,100654.53
2022-10-19T04:05:35.682Z,100634.81
2022-10-19T04:06:45.390Z,100648.34
2022-10-19T04:07:47.200Z,100651.13
2022-10-19T04:08:50.871Z,100668.56
2022-10-19T04:09:52.926Z,100700.03
2022-10-19T04:11:03.292Z,100686.31
2022-10-19T04:12:08.751Z,100641.66
2022-10-19T04:13:11.781Z,100690.53
2022-10-19T04:14:26.758Z,100706.09
2022-10-19T04:15:35.738Z,100681.13
2022-10-19T04:16:37.461Z,100644.34
2022-10-19T04:17:39.638Z,100647.81
2022-10-19T04:18:41.570Z,100689.13
2022-10-19T04:19:47.018Z,100701.00
2022-10-19T04:20:49.943Z,100665.34
2022-10-19T04:21:51.622Z,100648.06
2022-10-19T04:22:57.518Z,100684.88
2022-10-19T04:24:13.477Z,100643.75
2022-10-19T04:25:16.691Z,100688.53
2022-10-19T04:26:18.898Z,100707.13
2022-10-19T04:27:24.067Z,100698.16
2022-10-19T04:28:26.740Z,100706.06
2022-10-19T04:29:30.169Z,100682.63
2022-10-19T04:30:38.309Z,100620.22
2022-10-19T04:31:41.327Z,100688.16
2022-10-19T04:32:43.151Z,100660.78
2022-10-19T04:34:46.436Z,100687.22
2022-10-19T04:35:55.717Z,100676.56
2022-10-19T04:37:00.671Z,100625.25
2022-10-19T04:38:04.912Z,100663.00
2022-10-19T04:39:07.765Z,100623.69
2022-10-19T04:40:15.059Z,100640.06
2022-10-19T04:41:21.599Z,100611.81
2022-10-19T04:42:23.531Z,100682.13
2022-10-19T04:43:26.135Z,100650.31
2022-10-19T04:44:29.315Z,100700.53
2022-10-19T04:45:36.209Z,100672.19
2022-10-19T04:46:39.660Z,100658.50
2022-10-19T04:47:45.376Z,100687.88
2022-10-19T04:48:51.949Z,100691.22
2022-10-19T04:49:56.066Z,100670.63
2022-10-19T04:50:58.880Z,100674.50
2022-10-19T04:52:02.325Z,100635.44
2022-10-19T04:53:05.260Z,100687.94
2022-10-19T04:54:08.485Z,100671.69
2022-10-19T04:55:12.587Z,100692.09
2022-10-19T04:56:20.473Z,100694.75
2022-10-19T04:57:22.101Z,100679.22
2022-10-19T04:58:24.187Z,100689.78
2022-10-19T04:59:26.632Z,100686.31
2022-10-19T05:00:29.973Z,100684.28
2022-10-19T05:01:31.765Z,100650.53
2022-10-19T05:02:36.244Z,100691.47
2022-10-19T05:03:51.097Z,100671.84
2022-10-19T05:04:56.010Z,100685.31
2022-10-19T05:06:00.628Z,100660.75
2022-10-19T05:07:02.692Z,100702.00
2022-10-19T05:08:04.426Z,100667.78
2022-10-19T05:09:10.490Z,100626.44
2022-10-19T05:10:12.627Z,100691.19
2022-10-19T05:11:21.932Z,100653.19
2022-10-19T05:12:26.173Z,100664.09
2022-10-19T05:13:35.486Z,100676.56
2022-10-19T05:14:39.135Z,100673.72
2022-10-19T05:15:44.473Z,100659.19
2022-10-19T05:16:46.294Z,100658.34
2022-10-19T05:17:48.256Z,100681.91
2022-10-19T05:18:57.021Z,100624.19
2022-10-19T05:20:00.762Z,100682.25
2022-10-19T05:21:09.613Z,100703.44
2022-10-19T05:22:14.101Z,100661.19
2022-10-19T05:23:15.722Z,100596.84
2022-10-19T05:24:28.859Z,100707.84
2022-10-19T05:25:30.792Z,100701.81
2022-10-19T05:26:32.794Z,100690.56
2022-10-19T05:27:37.417Z,100700.91
2022-10-19T05:28:40.144Z,100707.84
2022-10-19T05:29:42.196Z,100635.56
2022-10-19T05:30:48.832Z,100607.06
2022-10-19T05:31:59.485Z,100672.75
2022-10-19T05:33:06.479Z,100628.75
2022-10-19T05:35:10.310Z,100636.47
2022-10-19T05:36:22.781Z,100663.56
2022-10-19T05:37:27.653Z,100660.94
2022-10-19T05:38:32.082Z,100669.28
2022-10-19T05:39:34.689Z,100614.53
2022-10-19T05:40:36.603Z,100674.38
2022-10-19T05:41:40.692Z,100611.00
2022-10-19T05:42:43.029Z,100652.97
2022-10-19T05:43:53.716Z,100621.94
2022-10-19T05:44:55.370Z,100597.81
2022-10-19T05:46:10.848Z,100622.13
2022-10-19T05:47:12.497Z,100588.22
2022-10-19T05:48:14.797Z,100607.34
2022-10-19T05:49:18.937Z,100653.47
2022-10-19T05:50:22.580Z,100648.81
2022-10-19T05:51:27.385Z,100647.56
2022-10-19T05:52:39.947Z,100646.69
2022-10-19T05:53:42.438Z,100627.84
2022-10-19T05:54:44.756Z,100592.72
2022-10-19T05:55:48.252Z,100649.25
2022-10-19T05:56:52.262Z,100688.13
2022-10-19T05:57:57.249Z,100615.84
2022-10-19T05:59:02.341Z,100625.13
2022-10-19T06:00:09.530Z,100671.72
2022-10-19T06:01:19.257Z,100685.63
2022-10-19T06:02:20.813Z,100651.00
2022-10-19T06:03:25.489Z,100687.16
2022-10-19T06:04:27.190Z,100672.00
2022-10-19T06:05:32.548Z,100646.25
2022-10-19T06:06:39.679Z,100694.91
2022-10-19T06:07:41.331Z,100691.69
2022-10-19T06:08:47.428Z,100663.06
2022-10-19T06:09:56.122Z,100662.00
2022-10-19T06:11:11.420Z,100691.31
2022-10-19T06:12:15.741Z,100628.56
2022-10-19T06:13:31.433Z,100661.13
2022-10-19T06:14:33.937Z,100635.50
2022-10-19T06:15:36.877Z,100669.75
2022-10-19T06:16:38.937Z,100704.16
2022-10-19T06:17:46.470Z,100693.75
2022-10-19T06:18:52.041Z,100693.72
2022-10-19T06:19:54.047Z,100677.22
2022-10-19T06:20:55.991Z,100723.28
2022-10-19T06:21:58.180Z,100691.91
2022-10-19T06:23:01.198Z,100692.72
2022-10-19T06:24:05.162Z,100643.28
2022-10-19T06:25:10.579Z,100657.44
2022-10-19T06:26:14.317Z,100632.63
2022-10-19T06:27:18.217Z,100676.28
2022-10-19T06:28:21.465Z,100678.81
2022-10-19T06:29:23.364Z,100689.28
2022-10-19T06:30:25.262Z,100678.81
2022-10-19T06:31:31.467Z,100695.94
2022-10-19T06:32:37.853Z,100681.44
2022-10-19T06:33:42.993Z,100699.44
2022-10-19T06:34:53.003Z,100696.06
2022-10-19T06:35:56.348Z,100677.09
2022-10-19T06:36:58.161Z,100701.63
2022-10-19T06:38:00.243Z,100699.00
2022-10-19T06:39:02.552Z,100708.75
2022-10-19T06:40:07.352Z,100727.66
2022-10-19T06:41:10.767Z,100600.53
2022-10-19T06:42:13.361Z,100691.44
2022-10-19T06:43:15.641Z,100657.78
2022-10-19T06:44:21.485Z,100679.91
2022-10-19T06:45:24.483Z,100658.16
2022-10-19T06:46:30.729Z,100683.34
2022-10-19T06:47:37.242Z,100696.13
2022-10-19T06:48:41.749Z,100691.66
2022-10-19T06:49:44.815Z,100695.81
2022-10-19T06:50:47.451Z,100658.44
2022-10-19T06:51:51.782Z,100655.28
2022-10-19T06:52:55.094Z,100640.00
2022-10-19T06:53:59.892Z,100704.06
2022-10-19T06:55:02.888Z,100696.06
2022-10-19T06:56:07.126Z,100713.22
2022-10-19T06:57:11.701Z,100684.69
2022-10-19T06:58:22.056Z,100677.13
2022-10-19T06:59:25.494Z,100692.84
2022-10-19T07:00:29.279Z,100706.09
2022-10-19T07:01:43.872Z,100703.81
2022-10-19T07:02:46.447Z,100677.19
2022-10-19T07:03:51.793Z,100632.38
2022-10-19T07:04:53.561Z,100649.28
2022-10-19T07:06:01.750Z,100686.56
2022-10-19T07:07:04.225Z,100697.75
2022-10-19T07:08:08.839Z,100708.22
2022-10-19T07:09:10.737Z,100698.72
2022-10-19T07:10:13.249Z,100694.19
2022-10-19T07:11:22.300Z,100647.56
2022-10-19T07:12:24.192Z,100628.34
2022-10-19T07:13:28.103Z,100686.63
2022-10-19T07:14:42.011Z,100673.91
2022-10-19T07:15:44.312Z,100690.97
2022-10-19T07:16:57.775Z,100686.78
2022-10-19T07:18:09.592Z,100678.28
2022-10-19T07:19:12.260Z,100621.84
2022-10-19T07:20:15.752Z,100663.81
2022-10-19T07:21:21.716Z,100671.97
2022-10-19T07:22:28.080Z,100647.69
2022-10-19T07:23:32.206Z,100651.41
2022-10-19T07:24:37.223Z,100649.31
2022-10-19T07:25:41.640Z,100654.41
2022-10-19T07:26:44.574Z,100677.91
2022-10-19T07:27:46.150Z,100683.72
2022-10-19T07:28:50.102Z,100631.91
2022-10-19T07:29:51.888Z,100701.13
2022-10-19T07:30:53.618Z,100699.72
2022-10-19T07:31:55.525Z,100652.97
2022-10-19T07:32:57.835Z,100613.84
2022-10-19T07:34:02.374Z,100671.19
2022-10-19T07:35:07.773Z,100695.25
2022-10-19T07:36:11.801Z,100672.34
2022-10-19T07:37:15.669Z,100676.72
2022-10-19T07:38:20.463Z,100669.66
2022-10-19T07:39:22.255Z,100661.91
2022-10-19T07:40:27.090Z,100669.78
2022-10-19T07:41:28.892Z,100669.66
2022-10-19T07:42:30.871Z,100635.50
2022-10-19T07:43:33.161Z,100663.78
2022-10-19T07:44:34.923Z,100627.88
2022-10-19T07:45:36.729Z,100620.84
2022-10-19T07:46:39.721Z,100613.72
2022-10-19T07:47:43.318Z,100643.19
2022-10-19T07:48:48.140Z,100641.94
2022-10-19T07:49:49.811Z,100675.78
2022-10-19T07:50:53.236Z,100683.53
2022-10-19T07:51:56.071Z,100655.03
2022-10-19T07:52:58.907Z,100684.19
2022-10-19T07:54:01.894Z,100662.81
2022-10-19T07:55:05.234Z,100652.06
2022-10-19T07:56:09.480Z,100673.25
2022-10-19T07:57:12.452Z,100682.22
2022-10-19T07:58:14.378Z,100649.13
2022-10-19T07:59:17.629Z,100621.19
2022-10-19T08:00:24.079Z,100660.97
2022-10-19T08:01:32.019Z,100630.06
2022-10-19T08:02:54.680Z,100689.25
2022-10-19T08:05:24.122Z,100651.56
2022-10-19T08:06:26.843Z,100636.06
2022-10-19T08:07:28.849Z,100682.53
2022-10-19T08:08:31.055Z,100688.03
2022-10-19T08:09:52.125Z,100672.97
2022-10-19T08:10:55.883Z,100655.56
2022-10-19T08:11:57.521Z,100664.94
2022-10-19T08:12:59.611Z,100642.59
2022-10-19T08:14:08.426Z,100688.31
2022-10-19T08:15:11.173Z,100647.19
2022-10-19T08:16:29.820Z,100686.16
2022-10-19T08:17:40.263Z,100633.75
2022-10-19T08:19:08.470Z,100632.31
2022-10-19T08:20:19.336Z,100665.25
2022-10-19T08:21:23.655Z,100674.81
2022-10-19T08:22:26.777Z,100669.53
2022-10-19T08:23:28.848Z,100645.88
2022-10-19T08:24:34.600Z,100657.50
2022-10-19T08:25:45.686Z,100618.16
2022-10-19T08:26:53.382Z,100605.50
2022-10-19T08:27:55.482Z,100660.00
2022-10-19T08:29:04.902Z,100647.06
2022-10-19T08:30:07.740Z,100609.41
2022-10-19T08:31:18.374Z,100653.66
2022-10-19T08:32:19.982Z,100678.72
2022-10-19T08:33:21.910Z,100672.22
2022-10-19T08:34:23.893Z,100656.78
2022-10-19T08:35:27.052Z,100616.69
2022-10-19T08:36:31.268Z,100609.78
2022-10-19T08:37:44.204Z,100616.69
2022-10-19T08:38:49.357Z,100666.44
2022-10-19T08:39:52.615Z,100656.41
2022-10-19T08:40:57.003Z,100670.06
2022-10-19T08:42:07.509Z,100658.97
2022-10-19T08:43:22.697Z,100617.69
2022-10-19T08:44:40.400Z,100659.16
2022-10-19T08:45:52.392Z,100659.66
2022-10-19T08:47:29.647Z,100661.53
2022-10-19T08:48:40.817Z,100610.75
2022-10-19T08:49:47.257Z,100648.44
2022-10-19T08:50:49.509Z,100605.06
2022-10-19T08:52:15.417Z,100671.88
2022-10-19T08:53:42.717Z,100624.00
2022-10-19T08:54:53.915Z,100650.88
2022-10-19T08:56:38.815Z,100651.31
2022-10-19T08:57:57.243Z,100652.38
2022-10-19T08:59:03.994Z,100631.69
2022-10-19T09:00:22.042Z,100649.00
2022-10-19T09:01:59.447Z,100561.09
2022-10-19T09:03:54.485Z,100647.41
2022-10-19T09:05:08.411Z,100599.09
2022-10-19T09:06:24.551Z,100647.16
2022-10-19T09:07:35.520Z,100613.03
2022-10-19T09:08:40.205Z,100632.78
2022-10-19T09:09:49.100Z,100648.19
2022-10-19T09:10:53.833Z,100599.75
2022-10-19T09:12:03.758Z,100601.53
2022-10-19T09:13:46.969Z,100635.09
2022-10-19T09:15:02.872Z,100586.66
2022-10-19T09:16:05.393Z,100594.41
2022-10-19T09:17:18.863Z,100640.66
2022-10-19T09:18:29.797Z,100630.72
2022-10-19T09:19:32.411Z,100593.03
2022-10-19T09:20:45.545Z,100630.94
2022-10-19T09:21:58.244Z,100620.56
2022-10-19T09:23:21.265Z,100634.50
2022-10-19T09:24:44.465Z,100634.16
2022-10-19T09:25:50.183Z,100630.22
2022-10-19T09:26:55.505Z,100625.53
2022-10-19T09:28:14.128Z,100615.69
2022-10-19T09:29:48.274Z,100629.50
2022-10-19T09:30:54.574Z,100614.34
2022-10-19T09:32:00.658Z,100638.66
2022-10-19T09:33:05.016Z,100636.19
2022-10-19T09:34:20.199Z,100596.63
2022-10-19T09:35:27.902Z,100616.97
2022-10-19T09:36:50.497Z,100619.53
2022-10-19T09:38:05.427Z,100604.38
2022-10-19T09:39:15.869Z,100567.09
2022-10-19T09:40:28.880Z,100594.72
2022-10-19T09:41:37.604Z,100585.06
2022-10-19T09:42:42.000Z,100621.38
2022-10-19T09:43:58.963Z,100595.47
2022-10-19T09:45:18.041Z,100620.66
2022-10-19T09:46:39.573Z,100617.50
2022-10-19T09:47:44.546Z,100575.47
2022-10-19T09:48:54.535Z,100564.84
2022-10-19T09:50:26.157Z,100611.00
2022-10-19T09:51:40.225Z,100574.69
2022-10-19T09:52:45.051Z,100560.38
2022-10-19T09:53:52.818Z,100558.22
2022-10-19T09:55:14.068Z,100607.03
2022-10-19T09:56:21.639Z,100555.09
2022-10-19T09:57:26.668Z,100575.84
2022-10-19T09:58:33.102Z,100585.75
2022-10-19T09:59:37.858Z,100566.25
2022-10-19T10:00:52.615Z,100555.03
2022-10-19T10:02:29.305Z,100602.03
2022-10-19T10:03:44.235Z,100605.47
2022-10-19T10:04:48.875Z,100555.81
2022-10-19T10:06:02.349Z,100620.41
2022-10-19T10:07:05.957Z,100597.22
2022-10-19T10:08:17.424Z,100594.63
2022-10-19T10:09:34.254Z,100583.09
2022-10-19T10:10:44.689Z,100557.50
2022-10-19T10:11:48.946Z,100553.16
2022-10-19T10:12:56.956Z,100552.75
2022-10-19T10:14:07.498Z,100596.91
2022-10-19T10:15:19.560Z,100591.69
2022-10-19T10:16:38.348Z,100549.00
2022-10-19T10:17:41.170Z,100562.13
2022-10-19T10:18:53.945Z,100583.16
2022-10-19T10:20:01.696Z,100578.81
2022-10-19T10:21:15.274Z,100523.75
2022-10-19T10:22:41.206Z,100578.16
2022-10-19T10:23:44.255Z,100560.16
2022-10-19T10:24:59.421Z,100574.53
2022-10-19T10:26:01.406Z,100541.75
2022-10-19T10:27:06.670Z,100572.88
2022-10-19T10:28:28.246Z,100577.81
2022-10-19T10:29:36.720Z,100573.50
2022-10-19T10:30:41.658Z,100573.13
2022-10-19T10:31:44.773Z,100553.28
2022-10-19T10:32:58.028Z,100573.69
2022-10-19T10:34:12.433Z,100565.16
2022-10-19T10:35:34.619Z,100516.06
2022-10-19T10:36:36.269Z,100527.03
2022-10-19T10:37:44.523Z,100510.38
2022-10-19T10:38:55.606Z,100554.09
2022-10-19T10:40:03.990Z,100556.34
2022-10-19T10:41:23.016Z,100559.38
2022-10-19T10:42:30.960Z,100554.13
2022-10-19T10:43:35.925Z,100533.16
2022-10-19T10:44:45.526Z,100536.44
2022-10-19T10:45:55.538Z,100493.41
2022-10-19T10:47:00.309Z,100533.31
2022-10-19T10:48:27.254Z,100559.53
2022-10-19T10:49:42.955Z,100548.38
2022-10-19T10:50:57.903Z,100554.28
2022-10-19T10:52:17.966Z,100539.34
2022-10-19T10:53:31.768Z,100551.31
2022-10-19T10:54:35.437Z,100555.31
2022-10-19T10:55:38.726Z,100521.13
2022-10-19T10:56:44.117Z,100548.84
2022-10-19T10:57:54.566Z,100525.78
2022-10-19T10:59:03.252Z,100551.34
2022-10-19T11:00:16.376Z,100558.72
2022-10-19T11:01:30.793Z,100514.19
2022-10-19T11:03:22.792Z,100553.34
2022-10-19T11:04:29.793Z,100540.44
2022-10-19T11:05:33.981Z,100529.44
2022-10-19T11:06:46.076Z,100549.44
2022-10-19T11:07:56.898Z,100546.19
2022-10-19T11:09:25.693Z,100550.44
2022-10-19T11:10:46.252Z,100508.94
2022-10-19T11:11:56.929Z,100500.78
2022-10-19T11:13:35.890Z,100536.91
2022-10-19T11:15:05.451Z,100531.25
2022-10-19T11:16:20.842Z,100505.22
2022-10-19T11:17:29.092Z,100495.41
2022-10-19T11:20:24.707Z,100494.94
2022-10-19T11:21:56.911Z,100487.16
2022-10-19T11:23:52.370Z,100518.47
2022-10-19T11:25:12.658Z,100510.91
2022-10-19T11:26:36.485Z,100512.78
2022-10-19T11:28:01.072Z,100513.63
2022-10-19T11:29:24.160Z,100515.09
2022-10-19T11:30:27.355Z,100512.16
2022-10-19T11:31:47.520Z,100521.19
2022-10-19T11:33:14.034Z,100492.81
2022-10-19T11:34:26.022Z,100494.44
2022-10-19T11:36:13.492Z,100511.34
2022-10-19T11:37:49.950Z,100492.59
2022-10-19T11:39:21.263Z,100514.25
2022-10-19T11:40:35.812Z,100513.25
2022-10-19T11:41:43.517Z,100470.91
2022-10-19T11:43:05.039Z,100506.22
2022-10-19T11:44:46.390Z,100507.25
2022-10-19T11:45:54.663Z,100484.69
2022-10-19T11:47:18.800Z,100499.78
2022-10-19T11:48:43.877Z,100497.38
2022-10-19T11:50:06.783Z,100495.72
2022-10-19T11:51:21.882Z,100492.81
2022-10-19T11:52:49.033Z,100503.00
2022-10-19T11:54:20.975Z,100487.16
2022-10-19T11:55:28.623Z,100496.53
2022-10-19T11:56:58.082Z,100482.03
2022-10-19T11:58:19.927Z,100484.19
2022-10-19T11:59:46.923Z,100482.28
2022-10-19T12:01:13.117Z,100484.69
2022-10-19T12:02:24.275Z,100484.69
2022-10-19T12:03:56.669Z,100483.56
2022-10-19T12:05:13.026Z,100470.88
2022-10-19T12:06:27.720Z,100431.31
2022-10-19T12:08:04.330Z,100479.34
2022-10-19T12:09:24.536Z,100481.38
2022-10-19T12:10:33.029Z,100422.78
2022-10-19T12:11:38.195Z,100487.06
2022-10-19T12:12:46.299Z,100481.16
2022-10-19T12:13:53.473Z,100467.00
2022-10-19T12:15:25.800Z,100475.91
2022-10-19T12:16:53.115Z,100423.59
2022-10-19T12:18:04.617Z,100421.06
2022-10-19T12:19:18.670Z,100448.34
2022-10-19T12:20:25.121Z,100466.31
2022-10-19T12:21:30.341Z,100462.63
2022-10-19T12:22:36.530Z,100456.53
2022-10-19T12:23:44.374Z,100458.72
2022-10-19T12:24:46.847Z,100443.09
2022-10-19T12:25:49.762Z,100456.41
2022-10-19T12:26:55.069Z,100443.47
2022-10-19T12:27:57.238Z,100450.28
2022-10-19T12:29:13.140Z,100445.59
2022-10-19T12:30:28.567Z,100447.88
2022-10-19T12:31:31.167Z,100412.16
2022-10-19T12:32:44.058Z,100410.00
2022-10-19T12:34:07.859Z,100381.75
2022-10-19T12:35:45.154Z,100430.41
2022-10-19T12:36:58.865Z,100429.81
2022-10-19T12:38:06.044Z,100424.78
2022-10-19T12:39:32.914Z,100426.41
2022-10-19T12:40:44.116Z,100391.78
2022-10-19T12:41:53.146Z,100428.50
2022-10-19T12:43:04.087Z,100416.88
2022-10-19T12:44:42.370Z,100426.97
2022-10-19T12:46:33.175Z,100409.63
2022-10-19T12:47:35.618Z,100327.56
2022-10-19T12:48:40.558Z,100352.31
2022-10-19T12:49:53.469Z,100354.63
2022-10-19T12:51:04.256Z,100382.38
2022-10-19T12:52:08.602Z,100412.69
2022-10-19T12:53:41.323Z,100398.34
2022-10-19T12:54:44.460Z,100347.97
2022-10-19T12:55:47.414Z,100387.22
2022-10-19T12:56:57.928Z,100382.69
2022-10-19T12:58:08.596Z,100385.28
2022-10-19T12:59:31.578Z,100391.28
2022-10-19T13:00:36.642Z,100392.91
2022-10-19T13:01:39.151Z,100387.81
2022-10-19T13:02:43.766Z,100329.69
2022-10-19T13:03:48.910Z,100336.84
2022-10-19T13:04:57.196Z,100369.88
2022-10-19T13:06:08.054Z,100341.84
2022-10-19T13:07:18.041Z,100379.03
2022-10-19T13:08:32.390Z,100390.31
2022-10-19T13:09:48.068Z,100325.44
2022-10-19T13:11:15.046Z,100382.03
2022-10-19T13:12:21.395Z,100379.28
2022-10-19T13:14:00.232Z,100382.03